createdAt,value
2023-02-02T00:01:28.653Z,8.35
2023-02-02T00:03:56.709Z,8.35
2023-02-02T00:06:26.380Z,8.35
2023-02-02T00:08:53.787Z,8.34
2023-02-02T00:11:20.688Z,8.36
2023-02-02T00:13:47.615Z,8.39
2023-02-02T00:16:26.640Z,8.45
2023-02-02T00:18:55.728Z,8.48
2023-02-02T00:21:23.273Z,8.51
2023-02-02T00:23:50.532Z,8.53
2023-02-02T00:26:18.188Z,8.53
2023-02-02T00:28:44.955Z,8.53
2023-02-02T00:31:12.524Z,8.48
2023-02-02T00:33:39.345Z,8.48
2023-02-02T00:36:06.719Z,8.47
2023-02-02T00:38:34.548Z,8.46
2023-02-02T00:41:01.306Z,8.43
2023-02-02T00:43:28.044Z,8.42
2023-02-02T00:45:54.868Z,8.41
2023-02-02T00:48:21.635Z,8.40
2023-02-02T00:50:48.406Z,8.42
2023-02-02T00:53:15.202Z,8.41
2023-02-02T00:55:41.945Z,8.42
2023-02-02T00:58:08.699Z,8.44
2023-02-02T01:00:35.488Z,8.47
2023-02-02T01:03:04.381Z,8.51
2023-02-02T01:05:32.882Z,8.54
2023-02-02T01:07:59.837Z,8.56
2023-02-02T01:10:26.965Z,8.59
2023-02-02T01:12:53.776Z,8.61
2023-02-02T01:15:20.642Z,8.65
2023-02-02T01:17:47.509Z,8.66
2023-02-02T01:20:20.471Z,8.68
2023-02-02T01:22:47.812Z,8.67
2023-02-02T01:25:14.947Z,8.65
2023-02-02T01:27:43.168Z,8.65
2023-02-02T01:30:11.160Z,8.63
2023-02-02T01:32:37.920Z,8.61
2023-02-02T01:35:05.034Z,8.59
2023-02-02T01:37:31.817Z,8.54
2023-02-02T01:39:58.597Z,8.51
2023-02-02T01:42:25.396Z,8.46
2023-02-02T01:45:28.422Z,8.43
2023-02-02T01:47:58.937Z,8.42
2023-02-02T01:50:31.425Z,8.44
2023-02-02T01:53:02.126Z,8.48
2023-02-02T01:55:31.206Z,8.49
2023-02-02T01:58:05.088Z,8.54
2023-02-02T02:00:31.952Z,8.57
2023-02-02T02:03:09.038Z,8.61
2023-02-02T02:05:43.302Z,8.61
2023-02-02T02:08:26.977Z,8.62
2023-02-02T02:10:54.589Z,8.63
2023-02-02T02:13:44.861Z,8.66
2023-02-02T02:16:35.997Z,8.68
2023-02-02T02:19:32.568Z,8.69
2023-02-02T02:22:32.868Z,8.68
2023-02-02T02:25:30.382Z,8.66
2023-02-02T02:28:43.522Z,8.59
2023-02-02T02:31:19.048Z,8.53
2023-02-02T02:33:59.721Z,8.46
2023-02-02T02:37:01.163Z,8.37
2023-02-02T02:39:38.014Z,8.31
2023-02-02T02:42:13.635Z,8.26
2023-02-02T02:44:41.560Z,8.21
2023-02-02T02:47:08.905Z,8.20
2023-02-02T02:49:46.395Z,8.20
2023-02-02T02:52:14.071Z,8.19
2023-02-02T02:54:52.985Z,8.23
2023-02-02T02:58:02.790Z,8.21
2023-02-02T03:00:38.742Z,8.19
2023-02-02T03:03:45.384Z,8.20
2023-02-02T03:06:57.916Z,8.19
2023-02-02T03:09:35.918Z,8.21
2023-02-02T03:12:03.435Z,8.22
2023-02-02T03:14:35.952Z,8.23
2023-02-02T03:17:02.716Z,8.21
2023-02-02T03:19:29.490Z,8.21
2023-02-02T03:21:56.247Z,8.19
2023-02-02T03:24:23.052Z,8.19
2023-02-02T03:26:50.047Z,8.17
2023-02-02T03:29:17.612Z,8.17
2023-02-02T03:31:44.673Z,8.17
2023-02-02T03:34:11.439Z,8.18
2023-02-02T03:36:38.197Z,8.19
2023-02-02T03:39:04.982Z,8.16
2023-02-02T03:41:31.766Z,8.15
2023-02-02T03:43:58.511Z,8.14
2023-02-02T03:46:25.324Z,8.10
2023-02-02T03:48:52.137Z,8.07
2023-02-02T03:51:18.908Z,8.04
2023-02-02T03:53:47.582Z,8.01
2023-02-02T03:56:15.126Z,7.98
2023-02-02T03:58:41.891Z,7.97
2023-02-02T04:01:12.788Z,8.02
2023-02-02T04:03:39.565Z,8.05
2023-02-02T04:06:06.492Z,8.08
2023-02-02T04:08:34.083Z,8.09
2023-02-02T04:11:00.963Z,8.09
2023-02-02T04:13:27.787Z,8.07
2023-02-02T04:16:01.931Z,8.08
2023-02-02T04:18:29.464Z,8.06
2023-02-02T04:21:01.081Z,8.06
2023-02-02T04:23:31.447Z,8.06
2023-02-02T04:25:59.220Z,8.07
2023-02-02T04:28:27.036Z,8.09
2023-02-02T04:30:55.117Z,8.10
2023-02-02T04:33:24.791Z,8.13
2023-02-02T04:35:51.595Z,8.14
2023-02-02T04:38:18.522Z,8.15
2023-02-02T04:40:47.726Z,8.16
2023-02-02T04:43:14.819Z,8.14
2023-02-02T04:45:42.296Z,8.13
2023-02-02T04:48:09.423Z,8.12
2023-02-02T04:50:36.189Z,8.09
2023-02-02T04:53:03.965Z,8.07
2023-02-02T04:55:30.756Z,8.06
2023-02-02T04:57:57.512Z,8.05
2023-02-02T05:00:24.783Z,8.02
2023-02-02T05:02:51.574Z,8.02
2023-02-02T05:05:18.349Z,8.00
2023-02-02T05:07:45.132Z,7.98
2023-02-02T05:10:12.532Z,7.98
2023-02-02T05:12:39.301Z,7.97
2023-02-02T05:15:06.717Z,7.97
2023-02-02T05:17:33.672Z,7.97
2023-02-02T05:20:00.474Z,7.95
2023-02-02T05:22:27.357Z,7.95
2023-02-02T05:24:54.140Z,7.97
2023-02-02T05:27:21.221Z,7.99
2023-02-02T05:29:48.331Z,8.00
2023-02-02T05:32:15.594Z,8.04
2023-02-02T05:34:42.438Z,8.06
2023-02-02T05:37:09.198Z,8.09
2023-02-02T05:39:35.982Z,8.13
2023-02-02T05:42:02.769Z,8.15
2023-02-02T05:44:29.538Z,8.16
2023-02-02T05:46:56.307Z,8.18
2023-02-02T05:49:23.125Z,8.17
2023-02-02T05:51:57.188Z,8.18
2023-02-02T05:54:24.724Z,8.18
2023-02-02T05:56:54.681Z,8.17
2023-02-02T05:59:21.901Z,8.15
2023-02-02T06:01:49.202Z,8.13
2023-02-02T06:04:16.647Z,8.11
2023-02-02T06:06:43.981Z,8.08
2023-02-02T06:09:11.201Z,8.06
2023-02-02T06:11:39.425Z,8.05
2023-02-02T06:14:06.738Z,8.06
2023-02-02T06:16:33.528Z,8.08
2023-02-02T06:19:00.281Z,8.09
2023-02-02T06:21:30.923Z,8.10
2023-02-02T06:23:58.747Z,8.10
2023-02-02T06:26:26.313Z,8.14
2023-02-02T06:28:54.628Z,8.16
2023-02-02T06:31:22.108Z,8.17
2023-02-02T06:33:55.566Z,8.17
2023-02-02T06:36:23.450Z,8.16
2023-02-02T06:38:55.934Z,8.16
2023-02-02T06:41:23.011Z,8.13
2023-02-02T06:43:50.582Z,8.13
2023-02-02T06:46:18.002Z,8.12
2023-02-02T06:48:45.832Z,8.14
2023-02-02T06:51:12.624Z,8.15
2023-02-02T06:53:39.424Z,8.16
2023-02-02T06:56:09.839Z,8.17
2023-02-02T06:58:36.586Z,8.18
2023-02-02T07:01:10.846Z,8.17
2023-02-02T07:03:38.571Z,8.18
2023-02-02T07:06:22.292Z,8.22
2023-02-02T07:09:01.003Z,8.22
2023-02-02T07:11:29.657Z,8.23
2023-02-02T07:13:56.574Z,8.22
2023-02-02T07:16:23.399Z,8.23
2023-02-02T07:18:50.184Z,8.23
2023-02-02T07:21:20.239Z,8.23
2023-02-02T07:23:48.015Z,8.24
2023-02-02T07:26:16.785Z,8.25
2023-02-02T07:28:43.981Z,8.27
2023-02-02T07:31:21.366Z,8.28
2023-02-02T07:33:49.171Z,8.28
2023-02-02T07:36:21.329Z,8.30
2023-02-02T07:38:50.708Z,8.32
2023-02-02T07:41:17.746Z,8.35
2023-02-02T07:43:47.854Z,8.36
2023-02-02T07:46:14.719Z,8.38
2023-02-02T07:48:41.496Z,8.40
2023-02-02T07:51:13.155Z,8.43
2023-02-02T07:53:47.613Z,8.45
2023-02-02T07:56:27.533Z,8.45
2023-02-02T07:58:56.129Z,8.46
2023-02-02T08:01:25.973Z,8.49
2023-02-02T08:03:54.451Z,8.51
2023-02-02T08:06:24.154Z,8.52
2023-02-02T08:08:51.745Z,8.55
2023-02-02T08:11:21.981Z,8.57
2023-02-02T08:13:54.034Z,8.61
2023-02-02T08:16:22.106Z,8.63
2023-02-02T08:18:49.420Z,8.66
2023-02-02T08:21:17.337Z,8.71
2023-02-02T08:23:45.606Z,8.74
2023-02-02T08:26:32.785Z,8.79
2023-02-02T08:29:06.554Z,8.81
2023-02-02T08:31:41.663Z,8.85
2023-02-02T08:34:08.637Z,8.89
2023-02-02T08:36:35.560Z,8.92
2023-02-02T08:39:12.224Z,9.01
2023-02-02T08:41:39.394Z,9.04
2023-02-02T08:44:11.198Z,9.08
2023-02-02T08:46:38.453Z,9.11
2023-02-02T08:49:05.294Z,9.14
2023-02-02T08:51:32.061Z,9.18
2023-02-02T08:53:58.831Z,9.21
2023-02-02T08:56:25.625Z,9.25
2023-02-02T08:59:02.999Z,9.28
2023-02-02T09:01:32.898Z,9.32
2023-02-02T09:04:06.416Z,9.35
2023-02-02T09:06:39.189Z,9.40
2023-02-02T09:09:09.249Z,9.44
2023-02-02T09:11:36.835Z,9.48
2023-02-02T09:14:06.315Z,9.51
2023-02-02T09:16:35.258Z,9.53
2023-02-02T09:19:02.327Z,9.54
2023-02-02T09:21:29.466Z,9.56
2023-02-02T09:23:56.301Z,9.57
2023-02-02T09:26:28.815Z,9.59
2023-02-02T09:29:02.773Z,9.63
2023-02-02T09:31:33.767Z,9.69
2023-02-02T09:34:03.389Z,9.78
2023-02-02T09:36:31.146Z,9.83
2023-02-02T09:38:58.402Z,9.89
2023-02-02T09:41:37.630Z,9.94
2023-02-02T09:44:27.442Z,9.95
2023-02-02T09:47:35.280Z,9.99
2023-02-02T09:50:19.170Z,10.07
2023-02-02T09:53:04.106Z,10.12
2023-02-02T09:55:39.391Z,10.13
2023-02-02T09:58:27.092Z,10.17
2023-02-02T10:01:18.936Z,10.25
2023-02-02T10:04:15.105Z,10.32
2023-02-02T10:06:45.030Z,10.37
2023-02-02T10:09:41.946Z,10.41
2023-02-02T10:12:20.506Z,10.43
2023-02-02T10:15:00.328Z,10.41
2023-02-02T10:18:12.053Z,10.44
2023-02-02T10:20:56.434Z,10.55
2023-02-02T10:23:36.079Z,10.67
2023-02-02T10:26:21.778Z,10.73
2023-02-02T10:28:48.474Z,10.75
2023-02-02T10:31:55.092Z,10.81
2023-02-02T10:34:30.484Z,10.88
2023-02-02T10:37:28.009Z,10.95
2023-02-02T10:40:22.002Z,11.02
2023-02-02T10:43:46.770Z,10.98
2023-02-02T10:46:30.745Z,10.90
2023-02-02T10:49:29.780Z,10.85
2023-02-02T10:52:11.788Z,10.81
2023-02-02T10:55:04.136Z,10.80
2023-02-02T10:57:52.712Z,10.80
2023-02-02T11:00:35.276Z,10.80
2023-02-02T11:03:04.654Z,10.80
2023-02-02T11:05:50.537Z,10.88
2023-02-02T11:08:21.409Z,10.97
2023-02-02T11:10:53.156Z,11.04
2023-02-02T11:13:29.271Z,11.09
2023-02-02T11:16:14.457Z,11.11
2023-02-02T11:18:44.237Z,11.09
2023-02-02T11:21:23.468Z,11.09
2023-02-02T11:24:20.437Z,11.07
2023-02-02T11:26:57.040Z,11.10
2023-02-02T11:30:01.987Z,11.15
2023-02-02T11:32:33.383Z,11.20
2023-02-02T11:35:20.755Z,11.30
2023-02-02T11:38:09.143Z,11.37
2023-02-02T11:40:42.327Z,11.46
2023-02-02T11:43:20.089Z,11.59
2023-02-02T11:45:57.584Z,11.70
2023-02-02T11:48:31.384Z,11.78
2023-02-02T11:51:00.102Z,11.84
2023-02-02T11:53:42.868Z,11.87
2023-02-02T11:56:21.558Z,11.87
2023-02-02T11:58:49.993Z,11.85
2023-02-02T12:01:30.233Z,11.83
2023-02-02T12:04:01.458Z,11.78
2023-02-02T12:06:37.172Z,11.77
2023-02-02T12:09:22.505Z,11.76
2023-02-02T12:12:02.293Z,11.77
2023-02-02T12:15:00.279Z,11.79
2023-02-02T12:17:45.179Z,11.78
2023-02-02T12:20:42.890Z,11.82
2023-02-02T12:23:39.375Z,11.84
2023-02-02T12:26:37.007Z,11.86
2023-02-02T12:29:35.873Z,11.86
2023-02-02T12:32:44.730Z,11.88
2023-02-02T12:35:45.992Z,11.84
2023-02-02T12:38:47.241Z,11.82
2023-02-02T12:42:04.170Z,11.82
2023-02-02T12:44:56.353Z,11.91
2023-02-02T12:47:38.241Z,11.99
2023-02-02T12:50:24.712Z,12.04
2023-02-02T12:53:48.089Z,12.10
2023-02-02T12:57:08.158Z,12.14
2023-02-02T13:00:17.435Z,12.16
2023-02-02T13:03:00.727Z,12.17
2023-02-02T13:05:54.604Z,12.21
2023-02-02T13:08:54.010Z,12.19
2023-02-02T13:11:40.927Z,12.23
2023-02-02T13:14:25.093Z,12.27
2023-02-02T13:16:56.605Z,12.33
2023-02-02T13:20:04.389Z,12.43
2023-02-02T13:22:40.556Z,12.51
2023-02-02T13:25:18.402Z,12.53
2023-02-02T13:27:46.893Z,12.51
2023-02-02T13:30:32.398Z,12.49
2023-02-02T13:33:07.538Z,12.42
2023-02-02T13:35:50.526Z,12.36
2023-02-02T13:38:26.115Z,12.28
2023-02-02T13:41:01.401Z,12.24
2023-02-02T13:44:00.891Z,12.19
2023-02-02T13:46:47.600Z,12.12
2023-02-02T13:49:28.984Z,12.09
2023-02-02T13:52:45.585Z,12.08
2023-02-02T13:55:43.454Z,12.07
2023-02-02T13:58:37.415Z,12.09
2023-02-02T14:01:08.679Z,12.12
2023-02-02T14:03:42.445Z,12.11
2023-02-02T14:06:22.620Z,12.06
2023-02-02T14:08:56.692Z,11.99
2023-02-02T14:11:34.985Z,11.93
2023-02-02T14:14:32.089Z,11.83
2023-02-02T14:17:23.874Z,11.77
2023-02-02T14:20:01.948Z,11.79
2023-02-02T14:22:50.774Z,11.79
2023-02-02T14:25:29.684Z,11.78
2023-02-02T14:29:01.103Z,11.75
2023-02-02T14:31:53.132Z,11.76
2023-02-02T14:34:41.668Z,11.79
2023-02-02T14:37:34.640Z,11.81
2023-02-02T14:40:06.877Z,11.81
2023-02-02T14:43:25.397Z,11.79
2023-02-02T14:46:07.360Z,11.72
2023-02-02T14:48:34.788Z,11.66
2023-02-02T14:51:02.719Z,11.63
2023-02-02T14:53:34.157Z,11.63
2023-02-02T14:56:14.006Z,11.61
2023-02-02T14:58:53.546Z,11.60
2023-02-02T15:01:21.501Z,11.60
2023-02-02T15:03:51.020Z,11.60
2023-02-02T15:06:33.162Z,11.59
2023-02-02T15:09:33.361Z,11.58
2023-02-02T15:12:02.680Z,11.53
2023-02-02T15:15:20.937Z,11.51
2023-02-02T15:18:13.338Z,11.44
2023-02-02T15:20:49.707Z,11.41
2023-02-02T15:23:30.733Z,11.37
2023-02-02T15:26:06.805Z,11.30
2023-02-02T15:28:52.208Z,11.27
2023-02-02T15:31:50.071Z,11.18
2023-02-02T15:34:30.957Z,11.12
2023-02-02T15:37:02.601Z,11.07
2023-02-02T15:39:41.167Z,11.03
2023-02-02T15:42:38.094Z,10.97
2023-02-02T15:45:05.418Z,10.90
2023-02-02T15:47:36.474Z,10.86
2023-02-02T15:50:17.840Z,10.85
2023-02-02T15:52:50.721Z,10.81
2023-02-02T15:55:34.532Z,10.76
2023-02-02T15:58:02.465Z,10.72
2023-02-02T16:00:33.572Z,10.71
2023-02-02T16:03:12.631Z,10.67
2023-02-02T16:05:49.838Z,10.64
2023-02-02T16:08:34.079Z,10.60
2023-02-02T16:11:17.374Z,10.56
2023-02-02T16:14:10.307Z,10.50
2023-02-02T16:16:39.801Z,10.48
2023-02-02T16:19:09.333Z,10.45
2023-02-02T16:21:43.097Z,10.44
2023-02-02T16:24:20.888Z,10.42
2023-02-02T16:26:49.329Z,10.40
2023-02-02T16:29:18.310Z,10.39
2023-02-02T16:31:47.531Z,10.38
2023-02-02T16:34:41.416Z,10.37
2023-02-02T16:37:28.795Z,10.37
2023-02-02T16:40:35.798Z,10.37
2023-02-02T16:43:21.091Z,10.37
2023-02-02T16:45:58.773Z,10.38
2023-02-02T16:48:31.958Z,10.38
2023-02-02T16:51:29.571Z,10.40
2023-02-02T16:54:18.685Z,10.41
2023-02-02T16:57:00.421Z,10.41
2023-02-02T16:59:51.101Z,10.42
2023-02-02T17:02:38.982Z,10.43
2023-02-02T17:05:24.390Z,10.40
2023-02-02T17:08:00.625Z,10.40
2023-02-02T17:10:33.736Z,10.41
2023-02-02T17:13:03.124Z,10.40
2023-02-02T17:15:35.765Z,10.43
2023-02-02T17:18:04.997Z,10.45
2023-02-02T17:20:34.231Z,10.47
2023-02-02T17:23:05.094Z,10.47
2023-02-02T17:25:37.379Z,10.49
2023-02-02T17:28:11.326Z,10.50
2023-02-02T17:30:42.281Z,10.50
2023-02-02T17:33:17.653Z,10.52
2023-02-02T17:35:55.801Z,10.51
2023-02-02T17:38:24.564Z,10.53
2023-02-02T17:40:52.798Z,10.52
2023-02-02T17:43:19.626Z,10.53
2023-02-02T17:45:46.507Z,10.54
2023-02-02T17:48:14.240Z,10.55
2023-02-02T17:50:42.554Z,10.56
2023-02-02T17:53:16.296Z,10.56
2023-02-02T17:55:45.039Z,10.55
2023-02-02T17:58:14.907Z,10.54
2023-02-02T18:00:42.443Z,10.53
2023-02-02T18:03:25.062Z,10.52
2023-02-02T18:05:52.151Z,10.49
2023-02-02T18:08:19.164Z,10.48
2023-02-02T18:10:45.934Z,10.46
2023-02-02T18:13:19.610Z,10.45
2023-02-02T18:15:46.882Z,10.43
2023-02-02T18:18:13.684Z,10.43
2023-02-02T18:20:45.208Z,10.43
2023-02-02T18:23:13.048Z,10.41
2023-02-02T18:25:40.267Z,10.40
2023-02-02T18:28:08.452Z,10.39
2023-02-02T18:30:38.045Z,10.38
2023-02-02T18:33:04.904Z,10.36
2023-02-02T18:35:31.736Z,10.36
2023-02-02T18:37:58.581Z,10.35
2023-02-02T18:40:25.458Z,10.35
2023-02-02T18:42:52.228Z,10.32
2023-02-02T18:45:19.051Z,10.30
2023-02-02T18:47:45.814Z,10.28
2023-02-02T18:50:12.661Z,10.26
2023-02-02T18:52:39.427Z,10.25
2023-02-02T18:55:06.580Z,10.24
2023-02-02T18:57:33.411Z,10.21
2023-02-02T19:00:00.194Z,10.21
2023-02-02T19:02:27.208Z,10.21
2023-02-02T19:05:12.213Z,10.19
2023-02-02T19:07:57.093Z,10.17
2023-02-02T19:10:26.818Z,10.14
2023-02-02T19:13:00.352Z,10.13
2023-02-02T19:15:27.505Z,10.10
2023-02-02T19:17:55.421Z,10.09
2023-02-02T19:20:30.472Z,10.09
2023-02-02T19:23:12.617Z,10.07
2023-02-02T19:25:41.979Z,10.05
2023-02-02T19:28:30.752Z,10.02
2023-02-02T19:31:01.155Z,10.01
2023-02-02T19:33:41.718Z,9.99
2023-02-02T19:36:16.039Z,9.96
2023-02-02T19:38:42.986Z,9.95
2023-02-02T19:41:20.343Z,9.93
2023-02-02T19:43:48.916Z,9.91
2023-02-02T19:46:22.162Z,9.88
2023-02-02T19:48:53.799Z,9.84
2023-02-02T19:51:41.660Z,9.83
2023-02-02T19:54:36.611Z,9.79
2023-02-02T19:57:26.488Z,9.77
2023-02-02T19:59:54.632Z,9.73
2023-02-02T20:02:57.091Z,9.72
2023-02-02T20:05:32.824Z,9.70
2023-02-02T20:08:12.475Z,9.69
2023-02-02T20:10:45.970Z,9.67
2023-02-02T20:13:32.894Z,9.67
2023-02-02T20:16:04.420Z,9.63
2023-02-02T20:18:44.174Z,9.63
2023-02-02T20:21:36.917Z,9.60
2023-02-02T20:24:04.319Z,9.57
2023-02-02T20:26:36.932Z,9.57
2023-02-02T20:29:25.471Z,9.56
2023-02-02T20:31:56.052Z,9.53
2023-02-02T20:34:30.748Z,9.53
2023-02-02T20:37:13.809Z,9.54
2023-02-02T20:39:47.723Z,9.53
2023-02-02T20:42:15.385Z,9.52
2023-02-02T20:44:42.605Z,9.52
2023-02-02T20:47:09.837Z,9.52
2023-02-02T20:49:38.355Z,9.51
2023-02-02T20:52:10.527Z,9.52
2023-02-02T20:54:38.812Z,9.51
2023-02-02T20:57:05.811Z,9.52
2023-02-02T20:59:32.627Z,9.51
2023-02-02T21:01:59.801Z,9.50
2023-02-02T21:04:26.682Z,9.50
2023-02-02T21:06:55.231Z,9.49
2023-02-02T21:09:22.062Z,9.48
2023-02-02T21:11:48.906Z,9.49
2023-02-02T21:14:15.682Z,9.48
2023-02-02T21:16:42.492Z,9.47
2023-02-02T21:19:10.061Z,9.46
2023-02-02T21:21:36.939Z,9.46
2023-02-02T21:24:04.229Z,9.46
2023-02-02T21:26:31.162Z,9.47
2023-02-02T21:28:58.481Z,9.46
2023-02-02T21:31:26.287Z,9.47
2023-02-02T21:33:53.772Z,9.45
2023-02-02T21:36:35.998Z,9.44
2023-02-02T21:39:21.784Z,9.43
2023-02-02T21:41:50.550Z,9.40
2023-02-02T21:44:22.522Z,9.39
2023-02-02T21:46:51.351Z,9.38
2023-02-02T21:49:35.908Z,9.37
2023-02-02T21:52:12.185Z,9.32
2023-02-02T21:54:39.714Z,9.32
2023-02-02T21:57:19.322Z,9.32
2023-02-02T21:59:46.948Z,9.31
2023-02-02T22:02:44.115Z,9.32
2023-02-02T22:05:18.449Z,9.29
2023-02-02T22:07:48.823Z,9.28
2023-02-02T22:10:36.898Z,9.29
2023-02-02T22:13:24.836Z,9.28
2023-02-02T22:15:53.380Z,9.28
2023-02-02T22:18:25.436Z,9.30
2023-02-02T22:20:56.133Z,9.30
2023-02-02T22:23:26.759Z,9.31
2023-02-02T22:25:57.681Z,9.32
2023-02-02T22:28:28.103Z,9.33
2023-02-02T22:30:56.721Z,9.34
2023-02-02T22:33:26.070Z,9.35
2023-02-02T22:35:54.238Z,9.37
2023-02-02T22:38:24.032Z,9.38
2023-02-02T22:40:52.165Z,9.40
2023-02-02T22:43:20.476Z,9.40
2023-02-02T22:45:47.576Z,9.41
2023-02-02T22:48:15.586Z,9.43
2023-02-02T22:50:42.711Z,9.43
2023-02-02T22:53:09.535Z,9.46
2023-02-02T22:55:36.326Z,9.47
2023-02-02T22:58:03.083Z,9.47
2023-02-02T23:00:32.978Z,9.49
2023-02-02T23:02:59.838Z,9.49
2023-02-02T23:05:28.037Z,9.50
2023-02-02T23:07:55.315Z,9.52
2023-02-02T23:10:26.109Z,9.52
2023-02-02T23:12:55.430Z,9.55
2023-02-02T23:15:22.624Z,9.58
2023-02-02T23:17:49.874Z,9.59
2023-02-02T23:20:17.879Z,9.61
2023-02-02T23:22:44.760Z,9.64
2023-02-02T23:25:13.324Z,9.66
2023-02-02T23:27:40.916Z,9.69
2023-02-02T23:30:11.109Z,9.70
2023-02-02T23:32:37.869Z,9.75
2023-02-02T23:35:06.024Z,9.76
2023-02-02T23:37:32.850Z,9.77
2023-02-02T23:39:59.632Z,9.79
2023-02-02T23:42:26.419Z,9.82
2023-02-02T23:44:53.296Z,9.86
2023-02-02T23:47:20.187Z,9.90
2023-02-02T23:49:47.230Z,9.96
2023-02-02T23:52:14.773Z,10.02
2023-02-02T23:54:42.040Z,10.08
2023-02-02T23:57:09.195Z,10.16
2023-02-02T23:59:36.180Z,10.23
